Time;durP1;ratioP1;P1;durP2;ratioP2;P2;SDS_P1;SDS_P2;PMS_P1;PMS_P2;Temp;Humidity;BMP_temperature;BMP_pressure;BME280_temperature;BME280_humidity;BME280_pressure;Samples;Min_cycle;Max_cycle;Signal;HPM_P1;HPM_P2
2023/06/12 00:04:08;;;;;;;5.90;5.30;;;;;;;;;;5132549;27;20047;-51
2023/06/12 00:06:44;;;;;;;10.07;5.75;;;;;;;;;;5114939;28;20047;-50
2023/06/12 00:09:12;;;;;;;7.15;5.30;;;;;;;;;;5097656;28;20062;-50
2023/06/12 00:11:45;;;;;;;7.22;5.43;;;;;;;;;;5116398;28;20056;-50
2023/06/12 00:14:14;;;;;;;7.95;5.50;;;;;;;;;;5133870;27;20051;-51
2023/06/12 00:16:41;;;;;;;6.70;5.13;;;;;;;;;;5133631;27;20042;-50
2023/06/12 00:19:14;;;;;;;7.07;5.00;;;;;;;;;;5117974;27;20047;-50
2023/06/12 00:21:49;;;;;;;7.43;5.45;;;;;;;;;;5136487;27;20062;-49
2023/06/12 00:24:21;;;;;;;6.22;5.45;;;;;;;;;;5135847;27;20051;-48
2023/06/12 00:27:25;;;;;;;6.00;5.28;;;;;;;;;;5137881;27;20047;-48
2023/06/12 00:29:52;;;;;;;7.68;5.25;;;;;;;;;;5134723;27;20047;-50
2023/06/12 00:32:18;;;;;;;7.63;5.32;;;;;;;;;;5135975;27;20051;-49
2023/06/12 00:34:47;;;;;;;6.05;5.45;;;;;;;;;;5136097;27;20399;-50
2023/06/12 00:37:14;;;;;;;6.40;5.40;;;;;;;;;;5135198;27;20047;-51
2023/06/12 00:39:40;;;;;;;6.03;5.43;;;;;;;;;;5136139;27;20051;-49
2023/06/12 00:42:10;;;;;;;7.57;5.53;;;;;;;;;;5136049;27;20408;-52
2023/06/12 00:44:36;;;;;;;7.43;5.70;;;;;;;;;;5136010;27;20047;-52
2023/06/12 00:47:03;;;;;;;8.05;5.28;;;;;;;;;;5134771;27;20051;-51
2023/06/12 00:49:30;;;;;;;6.57;5.40;;;;;;;;;;5135675;27;20051;-49
2023/06/12 00:51:58;;;;;;;6.57;5.75;;;;;;;;;;5136234;27;20384;-52
2023/06/12 00:54:26;;;;;;;7.72;5.38;;;;;;;;;;5135808;27;20062;-49
2023/06/12 00:56:53;;;;;;;5.75;4.95;;;;;;;;;;5134799;27;20040;-50
2023/06/12 00:59:20;;;;;;;6.10;5.00;;;;;;;;;;5134896;27;20508;-51
2023/06/12 01:01:47;;;;;;;6.85;5.68;;;;;;;;;;5134072;27;20051;-49
2023/06/12 01:04:19;;;;;;;7.22;5.25;;;;;;;;;;5115219;27;20055;-51
2023/06/12 01:06:52;;;;;;;8.88;5.57;;;;;;;;;;5135965;27;20472;-50
2023/06/12 01:09:26;;;;;;;6.38;4.82;;;;;;;;;;5134012;27;20054;-51
2023/06/12 01:11:53;;;;;;;6.50;5.85;;;;;;;;;;5135548;27;20051;-48
2023/06/12 01:14:21;;;;;;;7.07;5.60;;;;;;;;;;5132588;27;20051;-47
2023/06/12 01:16:48;;;;;;;6.38;5.78;;;;;;;;;;5135209;27;20054;-53
2023/06/12 01:19:19;;;;;;;6.30;5.70;;;;;;;;;;5135252;27;20047;-51
2023/06/12 01:21:48;;;;;;;7.78;5.55;;;;;;;;;;5135381;27;20051;-52
2023/06/12 01:24:25;;;;;;;7.43;5.20;;;;;;;;;;5134889;27;20051;-52
2023/06/12 01:27:03;;;;;;;9.30;5.38;;;;;;;;;;5135512;27;20483;-50
2023/06/12 01:29:48;;;;;;;7.60;5.60;;;;;;;;;;5134057;27;20055;-51
2023/06/12 01:32:17;;;;;;;6.32;5.40;;;;;;;;;;5134124;27;20055;-50
2023/06/12 01:34:50;;;;;;;6.47;5.70;;;;;;;;;;5133083;27;20059;-48
2023/06/12 01:37:21;;;;;;;8.98;5.53;;;;;;;;;;5134803;27;20047;-51
2023/06/12 01:39:50;;;;;;;6.03;5.28;;;;;;;;;;5134916;27;20054;-51
2023/06/12 01:42:18;;;;;;;6.40;5.50;;;;;;;;;;5135049;27;20062;-49
2023/06/12 01:44:45;;;;;;;6.03;5.43;;;;;;;;;;5133562;27;20062;-49
2023/06/12 01:47:12;;;;;;;8.48;5.60;;;;;;;;;;5134347;27;20055;-49
2023/06/12 01:49:40;;;;;;;6.60;5.45;;;;;;;;;;5131819;27;20388;-52
2023/06/12 01:52:07;;;;;;;5.97;5.38;;;;;;;;;;5134665;27;20051;-50
2023/06/12 01:54:35;;;;;;;5.75;5.15;;;;;;;;;;5134449;27;20062;-51
2023/06/12 01:57:03;;;;;;;8.10;5.68;;;;;;;;;;5133935;27;20074;-50
2023/06/12 01:59:32;;;;;;;7.97;5.93;;;;;;;;;;5133954;27;20054;-51
2023/06/12 02:01:59;;;;;;;5.97;5.22;;;;;;;;;;5133684;27;20491;-49
2023/06/12 02:04:28;;;;;;;6.72;5.80;;;;;;;;;;5132561;27;20043;-49
2023/06/12 02:06:56;;;;;;;7.95;5.50;;;;;;;;;;5115942;27;20047;-51
2023/06/12 02:09:23;;;;;;;6.88;5.45;;;;;;;;;;5134675;27;20047;-49
2023/06/12 02:11:53;;;;;;;6.75;5.70;;;;;;;;;;5134437;27;20051;-51
2023/06/12 02:14:20;;;;;;;8.50;6.40;;;;;;;;;;5134219;27;20051;-48
2023/06/12 02:16:47;;;;;;;9.00;6.05;;;;;;;;;;5117122;27;20050;-50
2023/06/12 02:19:14;;;;;;;7.40;5.75;;;;;;;;;;5132725;27;20054;-50
2023/06/12 02:21:41;;;;;;;8.63;6.15;;;;;;;;;;5134071;27;20047;-48
2023/06/12 02:24:09;;;;;;;7.07;6.38;;;;;;;;;;5133787;27;20058;-50
2023/06/12 02:26:36;;;;;;;6.70;5.60;;;;;;;;;;5134176;27;20058;-52
2023/06/12 02:29:06;;;;;;;8.57;6.80;;;;;;;;;;5133902;27;20062;-52
2023/06/12 02:31:33;;;;;;;6.22;5.47;;;;;;;;;;5134317;27;20047;-49
2023/06/12 02:34:00;;;;;;;8.52;5.65;;;;;;;;;;5131703;27;20055;-49
2023/06/12 02:36:27;;;;;;;7.70;6.10;;;;;;;;;;5133507;27;20055;-47
2023/06/12 02:38:56;;;;;;;7.60;6.07;;;;;;;;;;5134020;27;20055;-49
2023/06/12 02:41:25;;;;;;;7.57;6.03;;;;;;;;;;5132264;27;20062;-50
2023/06/12 02:43:52;;;;;;;6.93;6.32;;;;;;;;;;5127716;27;20462;-51
2023/06/12 02:46:19;;;;;;;8.52;6.70;;;;;;;;;;5113046;28;20433;-51
2023/06/12 02:48:46;;;;;;;7.35;6.65;;;;;;;;;;5131295;27;20055;-52
2023/06/12 02:51:13;;;;;;;10.32;7.18;;;;;;;;;;5133422;27;20046;-49
2023/06/12 02:53:40;;;;;;;7.10;6.05;;;;;;;;;;5133239;27;20058;-52
2023/06/12 02:56:07;;;;;;;8.40;6.95;;;;;;;;;;5133238;27;20529;-52
2023/06/12 02:58:35;;;;;;;7.70;6.63;;;;;;;;;;5133194;27;20054;-49
2023/06/12 03:01:04;;;;;;;7.95;6.47;;;;;;;;;;5133470;27;20399;-48
2023/06/12 03:03:30;;;;;;;8.32;6.47;;;;;;;;;;5132649;27;20058;-50
2023/06/12 03:05:58;;;;;;;8.43;6.43;;;;;;;;;;5133275;28;20047;-53
2023/06/12 03:08:24;;;;;;;7.95;6.88;;;;;;;;;;5133509;28;20043;-49
2023/06/12 03:10:51;;;;;;;7.70;6.40;;;;;;;;;;5133540;28;20471;-52
2023/06/12 03:13:19;;;;;;;10.38;6.50;;;;;;;;;;5133302;28;20055;-51
2023/06/12 03:15:47;;;;;;;7.55;5.57;;;;;;;;;;5133488;28;20395;-52
2023/06/12 03:18:14;;;;;;;8.67;6.23;;;;;;;;;;5131402;27;20047;-52
2023/06/12 03:20:41;;;;;;;7.53;6.13;;;;;;;;;;5133473;28;20047;-50
2023/06/12 03:23:08;;;;;;;7.80;6.93;;;;;;;;;;5133248;28;20051;-49
2023/06/12 03:25:35;;;;;;;8.38;6.15;;;;;;;;;;5131844;27;20372;-53
2023/06/12 03:28:02;;;;;;;9.38;5.82;;;;;;;;;;5131441;28;20052;-51
2023/06/12 03:30:29;;;;;;;7.45;5.60;;;;;;;;;;5133280;28;20420;-50
2023/06/12 03:32:57;;;;;;;8.95;6.30;;;;;;;;;;5131231;27;20047;-50
2023/06/12 03:35:24;;;;;;;7.88;5.90;;;;;;;;;;5134724;27;20051;-49
2023/06/12 03:37:51;;;;;;;8.20;5.55;;;;;;;;;;5136871;27;20056;-50
2023/06/12 03:40:18;;;;;;;6.68;5.43;;;;;;;;;;5136104;27;20055;-51
2023/06/12 03:42:45;;;;;;;6.78;5.40;;;;;;;;;;5136701;27;20054;-49
2023/06/12 03:45:12;;;;;;;6.72;6.03;;;;;;;;;;5136901;27;20404;-49
2023/06/12 03:47:39;;;;;;;7.30;6.32;;;;;;;;;;5135833;27;20050;-49
2023/06/12 03:50:10;;;;;;;7.15;5.80;;;;;;;;;;5135854;27;20051;-50
2023/06/12 03:52:36;;;;;;;7.22;5.85;;;;;;;;;;5136585;27;20051;-53
2023/06/12 03:55:03;;;;;;;7.03;6.32;;;;;;;;;;5136696;27;20051;-49
2023/06/12 03:57:30;;;;;;;8.30;5.70;;;;;;;;;;5136436;27;20070;-50
2023/06/12 03:59:57;;;;;;;7.18;5.65;;;;;;;;;;5135701;27;20066;-51
2023/06/12 04:02:24;;;;;;;8.43;5.65;;;;;;;;;;5135629;27;20088;-51
2023/06/12 04:04:51;;;;;;;6.72;5.53;;;;;;;;;;5135279;27;20050;-49
2023/06/12 04:07:19;;;;;;;9.05;6.13;;;;;;;;;;5136212;27;20051;-52
2023/06/12 04:09:46;;;;;;;8.07;5.88;;;;;;;;;;5135920;27;20415;-50
2023/06/12 04:12:12;;;;;;;8.07;5.68;;;;;;;;;;5132894;27;20062;-49
2023/06/12 04:14:39;;;;;;;7.63;6.25;;;;;;;;;;5136628;27;20050;-49
2023/06/12 04:17:06;;;;;;;7.45;6.15;;;;;;;;;;5135815;27;20407;-51
2023/06/12 04:19:33;;;;;;;8.07;6.13;;;;;;;;;;5135367;27;20059;-51
2023/06/12 04:22:01;;;;;;;6.97;5.95;;;;;;;;;;5134957;27;20055;-51
2023/06/12 04:24:31;;;;;;;6.97;6.03;;;;;;;;;;5135661;27;20058;-53
2023/06/12 04:27:01;;;;;;;;;;;;;;;;;;5136444;27;20061;-49
2023/06/12 04:29:27;;;;;;;;;;;;;;;;;;5134973;27;19930;-51
2023/06/12 04:31:54;;;;;;;11.20;6.80;;;;;;;;;;5136040;27;20372;-52
2023/06/12 04:34:21;;;;;;;7.15;5.70;;;;;;;;;;5135847;27;20051;-50
2023/06/12 04:36:52;;;;;;;6.25;5.50;;;;;;;;;;5136353;27;20400;-51
2023/06/12 04:39:19;;;;;;;8.73;6.05;;;;;;;;;;5135565;27;20051;-60
2023/06/12 04:41:51;;;;;;;10.05;6.88;;;;;;;;;;5135310;27;20062;-60
2023/06/12 04:44:19;;;;;;;8.30;6.40;;;;;;;;;;5134859;27;20054;-60
2023/06/12 04:46:46;;;;;;;10.05;6.95;;;;;;;;;;5135450;27;20051;-60
2023/06/12 04:49:14;;;;;;;8.00;6.03;;;;;;;;;;5133996;27;20043;-60
2023/06/12 04:51:42;;;;;;;7.40;6.60;;;;;;;;;;5134288;27;20047;-60
2023/06/12 04:54:10;;;;;;;7.38;6.45;;;;;;;;;;5135752;27;20074;-60
2023/06/12 04:56:40;;;;;;;8.25;7.30;;;;;;;;;;5133100;27;20055;-60
2023/06/12 04:59:09;;;;;;;8.18;6.50;;;;;;;;;;5135490;27;20054;-59
2023/06/12 05:01:36;;;;;;;9.05;6.97;;;;;;;;;;5135733;27;20058;-59
2023/06/12 05:04:02;;;;;;;8.63;6.45;;;;;;;;;;5133152;27;20058;-59
2023/06/12 05:06:30;;;;;;;8.50;7.13;;;;;;;;;;5135633;27;20169;-60
2023/06/12 05:08:56;;;;;;;8.52;6.68;;;;;;;;;;5134175;27;20487;-59
2023/06/12 05:11:23;;;;;;;9.27;6.57;;;;;;;;;;5135233;27;20055;-60
2023/06/12 05:13:50;;;;;;;9.88;7.30;;;;;;;;;;5134875;27;20051;-60
2023/06/12 05:16:18;;;;;;;10.40;7.20;;;;;;;;;;5135069;27;20062;-60
2023/06/12 05:18:45;;;;;;;9.30;8.13;;;;;;;;;;5132958;27;20051;-59
2023/06/12 05:21:13;;;;;;;10.25;6.85;;;;;;;;;;5134820;27;20403;-60
2023/06/12 05:23:40;;;;;;;11.82;7.63;;;;;;;;;;5134848;27;20411;-59
2023/06/12 05:26:07;;;;;;;8.88;7.80;;;;;;;;;;5134786;27;20047;-60
2023/06/12 05:28:33;;;;;;;9.20;6.97;;;;;;;;;;5134430;27;20404;-59
2023/06/12 05:31:01;;;;;;;8.93;8.02;;;;;;;;;;5134519;27;20050;-59
2023/06/12 05:33:29;;;;;;;8.45;7.47;;;;;;;;;;5133242;27;21585;-60
2023/06/12 05:35:56;;;;;;;12.90;8.75;;;;;;;;;;5134398;27;20058;-60
2023/06/12 05:38:23;;;;;;;9.93;8.48;;;;;;;;;;5134755;27;20464;-60
2023/06/12 05:40:50;;;;;;;9.30;7.90;;;;;;;;;;5133725;27;20047;-59
2023/06/12 05:43:16;;;;;;;9.60;8.60;;;;;;;;;;5131718;27;20051;-60
2023/06/12 05:45:43;;;;;;;12.00;8.48;;;;;;;;;;5133422;27;20062;-60
2023/06/12 05:48:10;;;;;;;9.88;8.50;;;;;;;;;;5134044;27;20519;-60
2023/06/12 05:50:38;;;;;;;12.82;8.90;;;;;;;;;;5132950;27;20054;-60
2023/06/12 05:53:05;;;;;;;9.57;8.07;;;;;;;;;;5132993;27;20055;-59
2023/06/12 05:55:32;;;;;;;9.50;8.10;;;;;;;;;;5154851;27;20526;-59
2023/06/12 05:57:59;;;;;;;9.60;7.70;;;;;;;;;;5153284;27;20415;-59
2023/06/12 06:00:25;;;;;;;9.65;7.35;;;;;;;;;;5133632;27;20062;-60
2023/06/12 06:02:53;;;;;;;10.27;7.32;;;;;;;;;;5135060;27;20053;-60
2023/06/12 06:05:20;;;;;;;8.88;7.30;;;;;;;;;;5133993;27;20375;-60
2023/06/12 06:07:50;;;;;;;9.32;7.72;;;;;;;;;;5134090;27;20483;-60
2023/06/12 06:10:17;;;;;;;9.30;8.40;;;;;;;;;;5134067;27;20047;-60
2023/06/12 06:12:44;;;;;;;9.65;7.82;;;;;;;;;;5133361;27;20050;-60
2023/06/12 06:15:11;;;;;;;9.98;8.48;;;;;;;;;;5133833;27;20095;-60
2023/06/12 06:17:37;;;;;;;9.77;7.88;;;;;;;;;;5133448;27;20055;-60
2023/06/12 06:20:06;;;;;;;10.20;8.15;;;;;;;;;;5126730;27;20043;-60
2023/06/12 06:22:32;;;;;;;8.98;7.50;;;;;;;;;;5119243;27;20499;-59
2023/06/12 06:25:00;;;;;;;8.27;7.30;;;;;;;;;;5129250;27;20074;-60
2023/06/12 06:27:27;;;;;;;10.02;7.10;;;;;;;;;;5129094;27;20047;-60
2023/06/12 06:29:55;;;;;;;8.70;7.15;;;;;;;;;;5128755;27;20073;-60
2023/06/12 06:32:21;;;;;;;7.95;7.05;;;;;;;;;;5131484;27;20411;-60
2023/06/12 06:34:48;;;;;;;9.05;7.22;;;;;;;;;;5130328;27;20051;-59
2023/06/12 06:37:15;;;;;;;8.73;7.78;;;;;;;;;;5129407;27;20058;-59
2023/06/12 06:39:42;;;;;;;11.25;8.32;;;;;;;;;;5132234;27;20108;-58
2023/06/12 06:42:11;;;;;;;7.50;6.80;;;;;;;;;;5133257;27;20058;-59
2023/06/12 06:44:38;;;;;;;8.32;7.53;;;;;;;;;;5134237;27;20054;-60
2023/06/12 06:47:05;;;;;;;7.68;6.90;;;;;;;;;;5133329;27;20055;-60
2023/06/12 06:49:32;;;;;;;8.05;7.00;;;;;;;;;;5132079;27;20074;-60
2023/06/12 06:51:58;;;;;;;7.70;6.60;;;;;;;;;;5131514;27;20077;-59
2023/06/12 06:54:25;;;;;;;8.20;7.40;;;;;;;;;;5132864;27;20046;-60
2023/06/12 06:56:52;;;;;;;8.50;6.88;;;;;;;;;;5133209;27;20063;-60
2023/06/12 06:59:20;;;;;;;8.18;6.47;;;;;;;;;;5133275;27;20047;-48
2023/06/12 07:01:47;;;;;;;6.80;6.10;;;;;;;;;;5127171;27;20065;-51
2023/06/12 07:04:14;;;;;;;7.57;6.00;;;;;;;;;;5133494;27;20483;-51
2023/06/12 07:06:41;;;;;;;9.52;5.60;;;;;;;;;;5133353;27;20422;-52
2023/06/12 07:09:11;;;;;;;6.55;5.95;;;;;;;;;;5132652;27;20043;-50
2023/06/12 07:11:37;;;;;;;7.70;6.22;;;;;;;;;;5135661;27;20046;-50
2023/06/12 07:14:04;;;;;;;6.28;5.68;;;;;;;;;;5138916;27;20051;-50
2023/06/12 07:16:32;;;;;;;6.18;5.57;;;;;;;;;;5137379;27;20483;-52
2023/06/12 07:19:02;;;;;;;6.13;5.53;;;;;;;;;;5135341;27;20054;-53
2023/06/12 07:21:29;;;;;;;8.07;6.18;;;;;;;;;;5139379;27;20059;-49
2023/06/12 07:25:26;;;;;;;7.95;6.13;;;;;;;;;;5155063;27;20198;-64
2023/06/12 07:27:53;;;;;;;8.93;5.78;;;;;;;;;;5150920;27;20054;-64
2023/06/12 07:30:20;;;;;;;10.40;6.55;;;;;;;;;;5143957;27;20055;-64
2023/06/12 07:32:47;;;;;;;10.13;6.00;;;;;;;;;;5143009;27;20050;-64
2023/06/12 07:35:14;;;;;;;8.23;5.60;;;;;;;;;;5145002;27;20039;-64
2023/06/12 07:37:42;;;;;;;8.10;5.93;;;;;;;;;;5139741;27;20415;-64
2023/06/12 07:40:10;;;;;;;7.07;5.40;;;;;;;;;;5139482;27;20048;-64
2023/06/12 07:42:38;;;;;;;7.93;5.88;;;;;;;;;;5143560;27;20485;-64
2023/06/12 07:45:06;;;;;;;6.20;5.60;;;;;;;;;;5140727;27;20046;-64
2023/06/12 07:47:32;;;;;;;6.32;5.72;;;;;;;;;;5143743;27;20070;-65
2023/06/12 07:49:59;;;;;;;7.18;5.22;;;;;;;;;;5147132;27;20416;-62
2023/06/12 07:52:26;;;;;;;5.82;5.22;;;;;;;;;;5139394;27;20069;-62
2023/06/12 07:54:53;;;;;;;7.22;5.78;;;;;;;;;;5135512;27;20051;-62
2023/06/12 07:57:20;;;;;;;9.30;5.55;;;;;;;;;;5122108;28;20055;-62
2023/06/12 07:59:48;;;;;;;9.10;5.90;;;;;;;;;;5122369;28;20047;-62
2023/06/12 08:02:16;;;;;;;5.82;5.22;;;;;;;;;;5122606;27;20047;-62
2023/06/12 08:04:44;;;;;;;7.65;5.63;;;;;;;;;;5121815;28;20055;-62
2023/06/12 08:07:12;;;;;;;5.25;4.75;;;;;;;;;;5121098;27;20044;-62
2023/06/12 08:09:39;;;;;;;7.32;5.47;;;;;;;;;;5122772;28;20054;-62
2023/06/12 08:12:06;;;;;;;6.18;5.30;;;;;;;;;;5123811;27;20055;-62
2023/06/12 08:14:33;;;;;;;7.35;5.53;;;;;;;;;;5122893;28;20472;-62
2023/06/12 08:17:01;;;;;;;5.72;5.20;;;;;;;;;;5119435;27;20055;-65
2023/06/12 08:19:28;;;;;;;6.63;5.15;;;;;;;;;;5119940;27;20062;-62
2023/06/12 08:21:55;;;;;;;6.93;4.90;;;;;;;;;;5119693;28;20054;-64
2023/06/12 08:24:23;;;;;;;8.27;5.53;;;;;;;;;;5121787;28;20468;-65
2023/06/12 08:26:50;;;;;;;7.45;5.40;;;;;;;;;;5121640;28;20152;-65
2023/06/12 08:29:16;;;;;;;9.02;5.68;;;;;;;;;;5121041;27;20059;-65
2023/06/12 08:31:43;;;;;;;7.85;5.18;;;;;;;;;;5120042;27;20126;-65
2023/06/12 08:34:11;;;;;;;5.57;5.07;;;;;;;;;;5119208;27;20039;-66
2023/06/12 08:36:38;;;;;;;8.05;5.63;;;;;;;;;;5105837;28;20052;-67
2023/06/12 08:39:05;;;;;;;6.07;4.85;;;;;;;;;;5106071;28;20415;-66
2023/06/12 08:41:33;;;;;;;9.32;5.28;;;;;;;;;;5107430;28;21408;-65
2023/06/12 08:44:00;;;;;;;6.20;4.90;;;;;;;;;;5107715;28;20052;-66
2023/06/12 08:46:29;;;;;;;6.55;4.63;;;;;;;;;;5104650;28;20518;-66
2023/06/12 08:48:59;;;;;;;5.15;4.57;;;;;;;;;;5110091;27;20056;-63
2023/06/12 08:51:27;;;;;;;5.60;4.80;;;;;;;;;;5107496;28;20052;-63
2023/06/12 08:53:54;;;;;;;4.85;4.35;;;;;;;;;;5109268;27;20594;-64
2023/06/12 08:56:22;;;;;;;6.47;4.55;;;;;;;;;;5106893;28;20412;-63
2023/06/12 08:58:48;;;;;;;6.55;4.68;;;;;;;;;;5107644;27;20510;-64
2023/06/12 09:01:16;;;;;;;5.70;4.47;;;;;;;;;;5102552;27;20055;-63
2023/06/12 09:03:44;;;;;;;4.85;4.35;;;;;;;;;;5107958;27;20051;-64
2023/06/12 09:06:12;;;;;;;5.30;4.75;;;;;;;;;;5104191;27;20039;-67
2023/06/12 09:08:41;;;;;;;7.15;4.40;;;;;;;;;;5107242;27;20048;-66
2023/06/12 09:11:08;;;;;;;5.32;4.55;;;;;;;;;;5105835;28;20054;-66
2023/06/12 09:13:42;;;;;;;4.13;3.83;;;;;;;;;;5108032;28;20051;-66
2023/06/12 09:16:11;;;;;;;4.43;4.00;;;;;;;;;;5104237;28;20493;-66
2023/06/12 09:18:48;;;;;;;5.47;4.60;;;;;;;;;;5105392;28;20054;-66
2023/06/12 09:21:14;;;;;;;4.45;4.05;;;;;;;;;;5104330;28;20058;-66
2023/06/12 09:23:43;;;;;;;5.13;4.57;;;;;;;;;;5106726;28;20066;-66
2023/06/12 09:26:11;;;;;;;5.40;3.75;;;;;;;;;;5106127;28;20055;-67
2023/06/12 09:28:42;;;;;;;6.72;4.07;;;;;;;;;;5108239;28;20051;-66
2023/06/12 09:31:09;;;;;;;4.97;4.47;;;;;;;;;;5106964;27;20420;-67
2023/06/12 09:33:38;;;;;;;4.25;3.85;;;;;;;;;;5106355;28;20480;-66
2023/06/12 09:36:05;;;;;;;5.47;4.47;;;;;;;;;;5107110;28;20413;-67
2023/06/12 09:38:32;;;;;;;5.93;4.57;;;;;;;;;;5106603;28;20055;-66
2023/06/12 09:41:01;;;;;;;4.93;4.40;;;;;;;;;;5106357;28;20055;-66
2023/06/12 09:43:28;;;;;;;4.80;4.40;;;;;;;;;;5105207;28;20051;-66
2023/06/12 09:45:55;;;;;;;4.53;4.13;;;;;;;;;;5104746;28;20400;-66
2023/06/12 09:48:24;;;;;;;4.55;4.18;;;;;;;;;;5105020;28;20056;-65
2023/06/12 09:50:52;;;;;;;4.40;4.00;;;;;;;;;;5102768;27;20065;-65
2023/06/12 09:53:22;;;;;;;4.43;4.03;;;;;;;;;;5102094;28;20092;-62
2023/06/12 09:55:50;;;;;;;4.32;3.83;;;;;;;;;;5104911;27;20052;-64
2023/06/12 09:58:18;;;;;;;4.50;4.10;;;;;;;;;;5110156;27;20052;-64
2023/06/12 10:00:45;;;;;;;5.85;4.40;;;;;;;;;;5105252;27;20043;-64
2023/06/12 10:03:15;;;;;;;5.45;4.55;;;;;;;;;;5106311;28;20066;-63
2023/06/12 10:05:43;;;;;;;4.75;4.15;;;;;;;;;;5107499;27;20492;-61
2023/06/12 10:08:10;;;;;;;4.88;4.47;;;;;;;;;;5110001;27;20055;-60
2023/06/12 10:10:37;;;;;;;4.53;4.13;;;;;;;;;;5108570;27;20062;-60
2023/06/12 10:13:04;;;;;;;4.78;4.25;;;;;;;;;;5108474;28;20052;-65
2023/06/12 10:15:33;;;;;;;4.90;3.85;;;;;;;;;;5104216;27;20412;-61
2023/06/12 10:18:00;;;;;;;4.32;3.92;;;;;;;;;;5108900;27;20051;-59
2023/06/12 10:20:27;;;;;;;4.28;3.50;;;;;;;;;;5108871;28;20500;-67
2023/06/12 10:22:55;;;;;;;4.05;3.75;;;;;;;;;;5107661;28;20055;-58
2023/06/12 10:25:22;;;;;;;4.55;4.15;;;;;;;;;;5069037;28;20068;-61
2023/06/12 10:27:49;;;;;;;5.15;4.65;;;;;;;;;;5068437;28;20059;-63
2023/06/12 10:30:17;;;;;;;4.72;4.32;;;;;;;;;;5067667;28;20052;-64
2023/06/12 10:32:45;;;;;;;4.40;4.00;;;;;;;;;;5068837;28;20417;-63
2023/06/12 10:35:13;;;;;;;4.72;4.15;;;;;;;;;;5069941;28;20059;-63
2023/06/12 10:37:42;;;;;;;5.53;4.75;;;;;;;;;;5067480;28;20052;-64
2023/06/12 10:40:11;;;;;;;4.50;4.10;;;;;;;;;;5067707;28;20116;-64
2023/06/12 10:42:41;;;;;;;5.20;4.25;;;;;;;;;;5067378;28;20068;-64
2023/06/12 10:45:17;;;;;;;4.60;4.20;;;;;;;;;;5067705;28;20405;-64
2023/06/12 10:50:42;;;;;;;4.35;3.95;;;;;;;;;;5124774;27;21440;-65
2023/06/12 10:53:09;;;;;;;4.70;4.30;;;;;;;;;;5124502;27;20066;-65
2023/06/12 10:55:37;;;;;;;4.82;4.32;;;;;;;;;;5113294;27;20063;-64
2023/06/12 10:58:04;;;;;;;;;;;;;;;;;;5101190;28;20060;-65
2023/06/12 11:00:32;;;;;;;6.32;4.28;;;;;;;;;;5095319;28;19920;-64
2023/06/12 11:02:59;;;;;;;5.10;4.60;;;;;;;;;;5098354;28;20055;-65
2023/06/12 11:05:26;;;;;;;;;;;;;;;;;;5099781;28;20062;-65
2023/06/12 11:07:56;;;;;;;5.23;4.83;;;;;;;;;;5097808;28;19928;-65
2023/06/12 11:10:23;;;;;;;5.53;4.50;;;;;;;;;;5096992;28;20048;-65
2023/06/12 11:12:51;;;;;;;5.00;4.50;;;;;;;;;;5098855;28;20064;-65
2023/06/12 11:15:18;;;;;;;5.35;4.53;;;;;;;;;;5101427;28;20048;-65
2023/06/12 11:17:45;;;;;;;4.93;4.43;;;;;;;;;;5098148;28;20058;-65
2023/06/12 11:20:13;;;;;;;4.80;4.13;;;;;;;;;;5097266;28;20051;-64
2023/06/12 11:22:40;;;;;;;4.78;4.38;;;;;;;;;;5102555;28;20062;-64
2023/06/12 11:25:08;;;;;;;5.03;4.63;;;;;;;;;;5100840;28;20538;-65
2023/06/12 11:27:36;;;;;;;5.60;5.07;;;;;;;;;;5097062;28;20055;-65
2023/06/12 11:30:09;;;;;;;6.00;5.30;;;;;;;;;;5091460;28;20056;-64
2023/06/12 11:32:36;;;;;;;5.50;4.88;;;;;;;;;;5092519;28;20059;-65
2023/06/12 11:35:04;;;;;;;7.03;4.80;;;;;;;;;;5090411;28;20417;-64
2023/06/12 11:37:31;;;;;;;5.93;5.32;;;;;;;;;;5102797;28;20517;-64
2023/06/12 11:40:06;;;;;;;5.57;5.05;;;;;;;;;;5099164;28;20503;-64
2023/06/12 11:42:34;;;;;;;5.18;4.78;;;;;;;;;;5101600;28;20051;-65
2023/06/12 11:45:01;;;;;;;5.28;4.78;;;;;;;;;;5101276;28;20047;-63
2023/06/12 11:47:28;;;;;;;5.75;4.95;;;;;;;;;;5095307;28;20059;-64
2023/06/12 11:49:55;;;;;;;6.38;5.63;;;;;;;;;;5099940;28;20055;-65
2023/06/12 11:52:22;;;;;;;5.68;4.72;;;;;;;;;;5093376;28;20055;-64
2023/06/12 11:54:59;;;;;;;5.53;5.03;;;;;;;;;;5091524;28;20055;-64
2023/06/12 11:57:27;;;;;;;5.30;4.90;;;;;;;;;;5094440;28;20496;-64
2023/06/12 11:59:57;;;;;;;5.53;4.90;;;;;;;;;;5094162;28;20053;-63
2023/06/12 12:02:29;;;;;;;5.28;4.68;;;;;;;;;;5085390;28;20056;-64
2023/06/12 12:05:04;;;;;;;5.30;4.80;;;;;;;;;;5077344;28;20060;-62
2023/06/12 12:07:31;;;;;;;5.80;4.88;;;;;;;;;;5091301;28;20052;-64
2023/06/12 12:10:04;;;;;;;5.85;4.65;;;;;;;;;;5073927;28;20055;-64
2023/06/12 12:12:41;;;;;;;7.85;5.10;;;;;;;;;;5080955;28;20055;-63
2023/06/12 12:15:11;;;;;;;5.25;4.78;;;;;;;;;;5083030;28;20048;-63
2023/06/12 12:17:38;;;;;;;5.15;4.75;;;;;;;;;;5077854;28;20551;-63
2023/06/12 12:20:07;;;;;;;7.03;4.85;;;;;;;;;;5083499;28;20053;-63
2023/06/12 12:22:37;;;;;;;5.57;4.60;;;;;;;;;;5082635;28;20519;-63
2023/06/12 12:25:05;;;;;;;5.55;4.60;;;;;;;;;;5086734;28;20056;-63
2023/06/12 12:27:31;;;;;;;5.20;4.78;;;;;;;;;;5086092;28;20063;-63
2023/06/12 12:29:58;;;;;;;6.40;5.18;;;;;;;;;;5082202;28;20051;-63
2023/06/12 12:32:26;;;;;;;5.30;4.65;;;;;;;;;;5082202;28;20432;-63
2023/06/12 12:34:57;;;;;;;5.80;5.10;;;;;;;;;;5082711;28;20056;-63
2023/06/12 12:37:28;;;;;;;5.38;4.88;;;;;;;;;;5079168;28;20052;-63
2023/06/12 12:39:55;;;;;;;4.90;4.50;;;;;;;;;;5081526;28;20063;-64
2023/06/12 12:42:24;;;;;;;5.32;4.78;;;;;;;;;;5075455;28;20063;-64
2023/06/12 12:44:51;;;;;;;5.05;4.60;;;;;;;;;;5086780;28;20063;-64
2023/06/12 12:47:18;;;;;;;5.55;4.57;;;;;;;;;;5081485;28;20056;-63
2023/06/12 12:49:46;;;;;;;5.00;4.60;;;;;;;;;;5078008;28;20408;-63
2023/06/12 12:52:14;;;;;;;5.03;4.57;;;;;;;;;;5078031;28;20059;-63
2023/06/12 12:54:43;;;;;;;;;;;;;;;;;;5076035;28;20056;-62
2023/06/12 12:57:10;;;;;;;5.20;4.72;;;;;;;;;;5078208;28;19924;-64
2023/06/12 12:59:37;;;;;;;5.50;5.07;;;;;;;;;;5082758;28;20512;-64
2023/06/12 13:02:03;;;;;;;5.05;4.65;;;;;;;;;;5080828;28;20153;-64
2023/06/12 13:04:30;;;;;;;5.45;4.90;;;;;;;;;;5082757;28;20067;-64
2023/06/12 13:06:59;;;;;;;6.00;4.57;;;;;;;;;;5087363;28;20048;-64
2023/06/12 13:09:25;;;;;;;6.05;4.47;;;;;;;;;;5085176;28;20070;-64
2023/06/12 13:11:52;;;;;;;5.73;4.90;;;;;;;;;;5077878;28;20060;-64
2023/06/12 13:14:19;;;;;;;7.90;4.95;;;;;;;;;;5083681;28;20075;-64
2023/06/12 13:16:46;;;;;;;6.37;4.77;;;;;;;;;;5078265;28;20052;-63
2023/06/12 13:19:13;;;;;;;5.35;4.65;;;;;;;;;;5079167;28;20059;-63
2023/06/12 13:21:42;;;;;;;5.20;4.70;;;;;;;;;;5077316;28;20048;-62
2023/06/12 13:24:10;;;;;;;7.63;4.75;;;;;;;;;;5080733;28;20047;-63
2023/06/12 13:26:37;;;;;;;5.13;4.63;;;;;;;;;;5078637;28;20501;-62
2023/06/12 13:29:04;;;;;;;4.57;4.18;;;;;;;;;;5082969;28;20052;-62
2023/06/12 13:31:31;;;;;;;5.38;4.70;;;;;;;;;;5076666;28;20063;-63
2023/06/12 13:33:58;;;;;;;9.85;4.50;;;;;;;;;;5077011;28;20055;-62
2023/06/12 13:36:25;;;;;;;5.60;4.82;;;;;;;;;;5086424;28;20067;-62
2023/06/12 13:38:52;;;;;;;6.15;4.82;;;;;;;;;;5085598;28;20055;-63
2023/06/12 13:41:20;;;;;;;6.18;4.60;;;;;;;;;;5081598;28;20040;-63
2023/06/12 13:43:48;;;;;;;4.95;4.28;;;;;;;;;;5081186;28;20048;-62
2023/06/12 13:46:14;;;;;;;5.15;4.40;;;;;;;;;;5082205;28;20460;-63
2023/06/12 13:48:42;;;;;;;5.30;4.50;;;;;;;;;;5084121;28;20508;-63
2023/06/12 13:51:09;;;;;;;5.68;5.18;;;;;;;;;;5073651;28;20055;-63
2023/06/12 13:53:36;;;;;;;5.07;4.57;;;;;;;;;;5084353;28;20052;-64
2023/06/12 13:56:03;;;;;;;4.78;4.32;;;;;;;;;;5082438;28;20052;-63
2023/06/12 13:58:31;;;;;;;5.43;4.35;;;;;;;;;;5069842;28;20067;-63
2023/06/12 14:00:58;;;;;;;5.65;5.03;;;;;;;;;;5080844;28;20944;-63
2023/06/12 14:03:27;;;;;;;5.47;4.68;;;;;;;;;;5081562;28;20058;-63
2023/06/12 14:05:54;;;;;;;5.13;4.63;;;;;;;;;;5078582;28;20052;-63
2023/06/12 14:08:21;;;;;;;6.03;4.68;;;;;;;;;;5080371;28;20055;-63
2023/06/12 14:10:48;;;;;;;4.82;4.32;;;;;;;;;;5078849;28;20055;-62
2023/06/12 14:13:15;;;;;;;5.15;4.65;;;;;;;;;;5081912;28;20044;-62
2023/06/12 14:15:43;;;;;;;6.35;4.75;;;;;;;;;;5082106;28;20067;-62
2023/06/12 14:18:10;;;;;;;5.93;4.88;;;;;;;;;;5082812;28;20481;-62
2023/06/12 14:20:36;;;;;;;5.03;4.20;;;;;;;;;;5079488;28;20056;-62
2023/06/12 14:23:03;;;;;;;7.20;4.70;;;;;;;;;;5081695;28;20044;-63
2023/06/12 14:25:32;;;;;;;5.05;4.55;;;;;;;;;;5081972;28;20059;-64
2023/06/12 14:28:03;;;;;;;5.97;4.85;;;;;;;;;;5080262;28;20059;-64
2023/06/12 14:30:36;;;;;;;6.93;4.68;;;;;;;;;;5080100;28;20393;-64
2023/06/12 14:33:04;;;;;;;4.53;4.07;;;;;;;;;;5079289;28;20138;-64
2023/06/12 14:35:31;;;;;;;;;;;;;;;;;;5086849;28;20730;-64
2023/06/12 14:37:57;;;;;;;4.75;4.35;;;;;;;;;;5082790;28;19920;-63
2023/06/12 14:40:24;;;;;;;5.68;4.40;;;;;;;;;;5083705;28;20052;-63
2023/06/12 14:42:51;;;;;;;4.85;4.22;;;;;;;;;;5084951;28;20056;-63
2023/06/12 14:45:19;;;;;;;4.88;4.47;;;;;;;;;;5082291;28;20055;-63
2023/06/12 14:47:46;;;;;;;4.82;4.20;;;;;;;;;;5083911;28;20464;-64
2023/06/12 14:50:14;;;;;;;5.85;4.47;;;;;;;;;;5077974;28;20059;-63
2023/06/12 14:52:41;;;;;;;;;;;;;;;;;;5087825;28;20052;-63
2023/06/12 14:55:08;;;;;;;5.90;4.75;;;;;;;;;;5088713;28;19920;-63
2023/06/12 14:57:35;;;;;;;7.43;4.65;;;;;;;;;;5089264;28;20052;-63